sensor_id;sensor_type;location;lat;lon;timestamp;temperature;humidity
69131;DHT22;56235;22.246;113.976;2022-07-21T10:37:48;26.60;44.40
69131;DHT22;56235;22.246;113.976;2022-07-21T10:40:37;26.50;44.60
69131;DHT22;56235;22.246;113.976;2022-07-21T10:43:37;26.50;44.70
69131;DHT22;56235;22.246;113.976;2022-07-21T10:46:34;26.40;44.60
69131;DHT22;56235;22.246;113.976;2022-07-21T10:49:08;26.40;44.80
69131;DHT22;56235;22.246;113.976;2022-07-21T10:51:41;26.40;46.50
69131;DHT22;56235;22.246;113.976;2022-07-21T10:54:26;26.00;46.60
69131;DHT22;56235;22.246;113.976;2022-07-21T10:57:32;25.50;46.30
69131;DHT22;56235;22.246;113.976;2022-07-21T11:00:23;25.00;46.10
69131;DHT22;56235;22.246;113.976;2022-07-21T11:02:59;24.50;46.10
69131;DHT22;56235;22.246;113.976;2022-07-21T11:05:33;24.10;46.20
69131;DHT22;56235;22.246;113.976;2022-07-21T11:08:17;23.80;45.80
69131;DHT22;56235;22.246;113.976;2022-07-21T11:10:53;23.70;46.60
69131;DHT22;56235;22.246;113.976;2022-07-21T11:13:26;23.70;47.80
69131;DHT22;56235;22.246;113.976;2022-07-21T11:16:00;23.80;48.80
69131;DHT22;56235;22.246;113.976;2022-07-21T11:18:33;23.80;48.10
69131;DHT22;56235;22.246;113.976;2022-07-21T11:21:14;23.90;48.10
69131;DHT22;56235;22.246;113.976;2022-07-21T11:23:48;23.90;48.20
69131;DHT22;56235;22.246;113.976;2022-07-21T11:26:26;24.00;48.40
69131;DHT22;56235;22.246;113.976;2022-07-21T11:29:05;24.10;48.70
69131;DHT22;56235;22.246;113.976;2022-07-21T11:31:46;24.10;48.80
69131;DHT22;56235;22.246;113.976;2022-07-21T11:34:20;24.10;48.80
69131;DHT22;56235;22.246;113.976;2022-07-21T11:37:01;24.20;49.20
69131;DHT22;56235;22.246;113.976;2022-07-21T11:39:55;24.20;49.30
69131;DHT22;56235;22.246;113.976;2022-07-21T11:42:30;24.20;49.20
69131;DHT22;56235;22.246;113.976;2022-07-21T11:45:22;24.20;49.10
69131;DHT22;56235;22.246;113.976;2022-07-21T11:47:56;24.20;49.10
69131;DHT22;56235;22.246;113.976;2022-07-21T11:50:29;24.20;49.20
69131;DHT22;56235;22.246;113.976;2022-07-21T11:53:03;24.20;49.20
69131;DHT22;56235;22.246;113.976;2022-07-21T11:55:37;24.20;49.10
69131;DHT22;56235;22.246;113.976;2022-07-21T11:58:16;24.20;49.10
69131;DHT22;56235;22.246;113.976;2022-07-21T12:00:52;24.10;49.00
69131;DHT22;56235;22.246;113.976;2022-07-21T12:03:48;24.10;49.40
69131;DHT22;56235;22.246;113.976;2022-07-21T12:06:23;24.10;48.90
69131;DHT22;56235;22.246;113.976;2022-07-21T12:08:56;24.10;48.90
69131;DHT22;56235;22.246;113.976;2022-07-21T12:11:35;24.00;48.90
69131;DHT22;56235;22.246;113.976;2022-07-21T12:14:10;24.00;48.70
69131;DHT22;56235;22.246;113.976;2022-07-21T12:16:49;24.00;49.00
69131;DHT22;56235;22.246;113.976;2022-07-21T12:19:22;23.90;48.80
69131;DHT22;56235;22.246;113.976;2022-07-21T12:21:56;23.90;48.70
69131;DHT22;56235;22.246;113.976;2022-07-21T12:24:51;23.90;48.80
69131;DHT22;56235;22.246;113.976;2022-07-21T12:27:25;23.90;48.80
69131;DHT22;56235;22.246;113.976;2022-07-21T12:30:00;23.80;48.90
69131;DHT22;56235;22.246;113.976;2022-07-21T12:32:43;23.80;49.10
69131;DHT22;56235;22.246;113.976;2022-07-21T12:35:24;23.80;49.80
69131;DHT22;56235;22.246;113.976;2022-07-21T12:38:04;23.80;49.20
69131;DHT22;56235;22.246;113.976;2022-07-21T12:40:40;23.70;49.10
69131;DHT22;56235;22.246;113.976;2022-07-21T12:43:33;23.70;49.00
69131;DHT22;56235;22.246;113.976;2022-07-21T12:46:13;23.70;49.20
69131;DHT22;56235;22.246;113.976;2022-07-21T12:48:48;23.70;49.30
69131;DHT22;56235;22.246;113.976;2022-07-21T12:51:22;23.70;49.20
69131;DHT22;56235;22.246;113.976;2022-07-21T12:53:56;23.60;49.10
69131;DHT22;56235;22.246;113.976;2022-07-21T12:56:30;23.60;49.30
69131;DHT22;56235;22.246;113.976;2022-07-21T12:59:04;23.60;49.40
69131;DHT22;56235;22.246;113.976;2022-07-21T13:01:39;23.60;49.40
69131;DHT22;56235;22.246;113.976;2022-07-21T13:04:12;23.60;49.40
69131;DHT22;56235;22.246;113.976;2022-07-21T13:06:44;23.50;49.30
69131;DHT22;56235;22.246;113.976;2022-07-21T13:09:17;23.50;49.50
69131;DHT22;56235;22.246;113.976;2022-07-21T13:11:50;23.50;49.60
69131;DHT22;56235;22.246;113.976;2022-07-21T13:14:23;23.50;49.70
69131;DHT22;56235;22.246;113.976;2022-07-21T13:17:04;23.40;49.60
69131;DHT22;56235;22.246;113.976;2022-07-21T13:19:37;23.40;49.40
69131;DHT22;56235;22.246;113.976;2022-07-21T13:22:10;23.40;49.70
69131;DHT22;56235;22.246;113.976;2022-07-21T13:24:43;23.40;49.80
69131;DHT22;56235;22.246;113.976;2022-07-21T13:27:16;23.30;49.70
69131;DHT22;56235;22.246;113.976;2022-07-21T13:29:48;23.30;49.50
69131;DHT22;56235;22.246;113.976;2022-07-21T13:32:23;23.30;49.30
69131;DHT22;56235;22.246;113.976;2022-07-21T13:34:56;23.30;49.30
69131;DHT22;56235;22.246;113.976;2022-07-21T13:37:50;23.30;49.40
69131;DHT22;56235;22.246;113.976;2022-07-21T13:40:25;23.30;49.30
69131;DHT22;56235;22.246;113.976;2022-07-21T13:43:18;23.30;49.30
69131;DHT22;56235;22.246;113.976;2022-07-21T13:46:06;23.30;49.10
69131;DHT22;56235;22.246;113.976;2022-07-21T13:48:42;23.30;49.10
69131;DHT22;56235;22.246;113.976;2022-07-21T13:51:15;23.30;49.20
69131;DHT22;56235;22.246;113.976;2022-07-21T13:53:53;23.30;50.00
69131;DHT22;56235;22.246;113.976;2022-07-21T13:56:27;23.30;49.50
69131;DHT22;56235;22.246;113.976;2022-07-21T13:59:00;23.30;49.60
69131;DHT22;56235;22.246;113.976;2022-07-21T14:01:36;23.30;49.80
69131;DHT22;56235;22.246;113.976;2022-07-21T14:04:11;23.40;49.70
69131;DHT22;56235;22.246;113.976;2022-07-21T14:06:46;23.40;49.60
69131;DHT22;56235;22.246;113.976;2022-07-21T14:09:20;23.40;49.40
69131;DHT22;56235;22.246;113.976;2022-07-21T14:11:53;23.40;49.30
69131;DHT22;56235;22.246;113.976;2022-07-21T14:14:27;23.40;49.20
69131;DHT22;56235;22.246;113.976;2022-07-21T14:17:02;23.40;49.10
69131;DHT22;56235;22.246;113.976;2022-07-21T14:19:36;23.40;48.90
69131;DHT22;56235;22.246;113.976;2022-07-21T14:22:09;23.40;48.90
69131;DHT22;56235;22.246;113.976;2022-07-21T14:24:43;23.30;48.80
69131;DHT22;56235;22.246;113.976;2022-07-21T14:27:33;23.30;48.60
69131;DHT22;56235;22.246;113.976;2022-07-21T14:30:07;23.30;48.70
69131;DHT22;56235;22.246;113.976;2022-07-21T14:32:40;23.30;48.60
69131;DHT22;56235;22.246;113.976;2022-07-21T14:35:19;23.30;48.50
69131;DHT22;56235;22.246;113.976;2022-07-21T14:37:52;23.30;48.50
69131;DHT22;56235;22.246;113.976;2022-07-21T14:40:25;23.30;48.50
69131;DHT22;56235;22.246;113.976;2022-07-21T14:42:59;23.20;48.40
69131;DHT22;56235;22.246;113.976;2022-07-21T14:45:32;23.20;48.40
69131;DHT22;56235;22.246;113.976;2022-07-21T14:48:05;23.20;48.40
69131;DHT22;56235;22.246;113.976;2022-07-21T14:50:41;23.20;48.30
69131;DHT22;56235;22.246;113.976;2022-07-21T14:53:14;23.20;48.30
69131;DHT22;56235;22.246;113.976;2022-07-21T14:55:47;23.20;48.40
69131;DHT22;56235;22.246;113.976;2022-07-21T14:58:20;23.20;48.30
69131;DHT22;56235;22.246;113.976;2022-07-21T15:00:53;23.20;48.30
69131;DHT22;56235;22.246;113.976;2022-07-21T15:03:25;23.20;48.20
69131;DHT22;56235;22.246;113.976;2022-07-21T15:06:00;23.20;48.30
69131;DHT22;56235;22.246;113.976;2022-07-21T15:08:34;23.20;48.30
69131;DHT22;56235;22.246;113.976;2022-07-21T15:11:07;23.10;48.20
69131;DHT22;56235;22.246;113.976;2022-07-21T15:13:40;23.10;48.30
69131;DHT22;56235;22.246;113.976;2022-07-21T15:16:17;23.10;48.30
69131;DHT22;56235;22.246;113.976;2022-07-21T15:18:50;23.10;48.20
69131;DHT22;56235;22.246;113.976;2022-07-21T15:21:25;23.10;48.30
69131;DHT22;56235;22.246;113.976;2022-07-21T15:23:58;23.10;48.40
69131;DHT22;56235;22.246;113.976;2022-07-21T15:26:31;23.00;48.30
69131;DHT22;56235;22.246;113.976;2022-07-21T15:29:04;23.10;48.50
69131;DHT22;56235;22.246;113.976;2022-07-21T15:31:37;23.10;48.50
69131;DHT22;56235;22.246;113.976;2022-07-21T15:34:10;23.10;48.60
69131;DHT22;56235;22.246;113.976;2022-07-21T15:36:45;23.00;48.70
69131;DHT22;56235;22.246;113.976;2022-07-21T15:39:18;23.00;48.70
69131;DHT22;56235;22.246;113.976;2022-07-21T15:41:51;23.00;48.80
69131;DHT22;56235;22.246;113.976;2022-07-21T15:44:24;23.00;48.90
69131;DHT22;56235;22.246;113.976;2022-07-21T15:46:57;23.00;48.90
69131;DHT22;56235;22.246;113.976;2022-07-21T15:49:31;23.00;49.10
69131;DHT22;56235;22.246;113.976;2022-07-21T15:52:06;23.00;49.00
69131;DHT22;56235;22.246;113.976;2022-07-21T15:54:39;23.00;49.00
69131;DHT22;56235;22.246;113.976;2022-07-21T15:57:30;23.00;49.10
69131;DHT22;56235;22.246;113.976;2022-07-21T16:00:06;23.00;49.00
69131;DHT22;56235;22.246;113.976;2022-07-21T16:02:39;23.10;49.10
69131;DHT22;56235;22.246;113.976;2022-07-21T16:05:14;23.00;49.00
69131;DHT22;56235;22.246;113.976;2022-07-21T16:08:08;23.00;49.00
69131;DHT22;56235;22.246;113.976;2022-07-21T16:10:41;23.00;48.90
69131;DHT22;56235;22.246;113.976;2022-07-21T16:13:15;23.10;49.00
69131;DHT22;56235;22.246;113.976;2022-07-21T16:15:48;23.00;48.80
69131;DHT22;56235;22.246;113.976;2022-07-21T16:18:21;23.00;48.70
69131;DHT22;56235;22.246;113.976;2022-07-21T16:20:54;23.00;48.80
69131;DHT22;56235;22.246;113.976;2022-07-21T16:23:29;23.00;48.80
69131;DHT22;56235;22.246;113.976;2022-07-21T16:26:02;23.00;49.20
69131;DHT22;56235;22.246;113.976;2022-07-21T16:28:42;23.00;49.50
69131;DHT22;56235;22.246;113.976;2022-07-21T16:31:14;23.00;49.40
69131;DHT22;56235;22.246;113.976;2022-07-21T16:33:48;23.00;49.40
69131;DHT22;56235;22.246;113.976;2022-07-21T16:36:23;23.00;49.30
69131;DHT22;56235;22.246;113.976;2022-07-21T16:38:57;23.00;49.30
69131;DHT22;56235;22.246;113.976;2022-07-21T16:41:30;23.00;49.20
69131;DHT22;56235;22.246;113.976;2022-07-21T16:44:03;23.00;49.20
69131;DHT22;56235;22.246;113.976;2022-07-21T16:46:37;23.00;49.10
69131;DHT22;56235;22.246;113.976;2022-07-21T16:49:10;22.90;48.90
69131;DHT22;56235;22.246;113.976;2022-07-21T16:51:44;22.90;48.90
69131;DHT22;56235;22.246;113.976;2022-07-21T16:54:19;22.90;49.40
69131;DHT22;56235;22.246;113.976;2022-07-21T16:56:52;22.90;48.90
69131;DHT22;56235;22.246;113.976;2022-07-21T16:59:25;22.90;48.80
69131;DHT22;56235;22.246;113.976;2022-07-21T17:01:57;22.90;48.90
69131;DHT22;56235;22.246;113.976;2022-07-21T17:04:31;22.90;48.40
69131;DHT22;56235;22.246;113.976;2022-07-21T17:07:04;22.90;49.00
69131;DHT22;56235;22.246;113.976;2022-07-21T17:09:39;22.90;49.10
69131;DHT22;56235;22.246;113.976;2022-07-21T17:12:12;22.80;49.00
69131;DHT22;56235;22.246;113.976;2022-07-21T17:14:44;22.90;49.10
69131;DHT22;56235;22.246;113.976;2022-07-21T17:17:17;22.90;49.70
69131;DHT22;56235;22.246;113.976;2022-07-21T17:19:50;23.00;50.50
69131;DHT22;56235;22.246;113.976;2022-07-21T17:22:23;23.20;50.60
69131;DHT22;56235;22.246;113.976;2022-07-21T17:24:58;23.30;50.90
69131;DHT22;56235;22.246;113.976;2022-07-21T17:27:31;23.40;50.80
69131;DHT22;56235;22.246;113.976;2022-07-21T17:30:04;23.50;51.40
69131;DHT22;56235;22.246;113.976;2022-07-21T17:32:50;23.60;52.10
69131;DHT22;56235;22.246;113.976;2022-07-21T17:35:23;23.70;52.80
69131;DHT22;56235;22.246;113.976;2022-07-21T17:37:57;23.80;52.90
69131;DHT22;56235;22.246;113.976;2022-07-21T17:40:32;23.90;53.20
69131;DHT22;56235;22.246;113.976;2022-07-21T17:43:05;24.00;53.30
69131;DHT22;56235;22.246;113.976;2022-07-21T17:48:29;24.10;53.00
69131;DHT22;56235;22.246;113.976;2022-07-21T17:51:03;24.30;53.00
69131;DHT22;56235;22.246;113.976;2022-07-21T17:53:36;24.30;52.80
69131;DHT22;56235;22.246;113.976;2022-07-21T17:56:14;24.40;52.50
69131;DHT22;56235;22.246;113.976;2022-07-21T17:58:47;24.50;52.30
69131;DHT22;56235;22.246;113.976;2022-07-21T18:01:20;24.60;52.10
69131;DHT22;56235;22.246;113.976;2022-07-21T18:03:53;24.70;52.00
69131;DHT22;56235;22.246;113.976;2022-07-21T18:06:28;24.70;51.80
69131;DHT22;56235;22.246;113.976;2022-07-21T18:09:01;24.70;51.60
69131;DHT22;56235;22.246;113.976;2022-07-21T18:11:36;24.80;51.60
69131;DHT22;56235;22.246;113.976;2022-07-21T18:14:09;24.80;51.40
69131;DHT22;56235;22.246;113.976;2022-07-21T18:16:42;24.90;51.40
69131;DHT22;56235;22.246;113.976;2022-07-21T18:19:16;24.90;51.20
69131;DHT22;56235;22.246;113.976;2022-07-21T18:21:49;25.00;51.20
69131;DHT22;56235;22.246;113.976;2022-07-21T18:24:22;25.00;51.10
69131;DHT22;56235;22.246;113.976;2022-07-21T18:26:57;25.00;50.90
69131;DHT22;56235;22.246;113.976;2022-07-21T18:29:30;25.10;51.00
69131;DHT22;56235;22.246;113.976;2022-07-21T18:32:03;25.10;51.40
69131;DHT22;56235;22.246;113.976;2022-07-21T18:34:37;25.10;51.00
69131;DHT22;56235;22.246;113.976;2022-07-21T18:37:10;25.20;51.00
69131;DHT22;56235;22.246;113.976;2022-07-21T18:39:43;25.20;51.00
69131;DHT22;56235;22.246;113.976;2022-07-21T18:42:18;25.20;50.90
69131;DHT22;56235;22.246;113.976;2022-07-21T18:44:51;25.20;50.80
69131;DHT22;56235;22.246;113.976;2022-07-21T18:47:26;25.20;50.70
69131;DHT22;56235;22.246;113.976;2022-07-21T18:49:59;25.30;50.60
69131;DHT22;56235;22.246;113.976;2022-07-21T18:52:32;25.30;50.50
69131;DHT22;56235;22.246;113.976;2022-07-21T18:55:07;25.30;50.40
69131;DHT22;56235;22.246;113.976;2022-07-21T18:57:43;25.30;50.50
69131;DHT22;56235;22.246;113.976;2022-07-21T19:00:16;25.30;50.50
69131;DHT22;56235;22.246;113.976;2022-07-21T19:02:48;25.30;50.40
69131;DHT22;56235;22.246;113.976;2022-07-21T19:05:21;25.40;50.60
69131;DHT22;56235;22.246;113.976;2022-07-21T19:07:54;25.40;50.60
69131;DHT22;56235;22.246;113.976;2022-07-21T19:10:28;25.40;50.60
69131;DHT22;56235;22.246;113.976;2022-07-21T19:13:02;25.40;50.50
69131;DHT22;56235;22.246;113.976;2022-07-21T19:15:51;25.40;50.50
69131;DHT22;56235;22.246;113.976;2022-07-21T19:18:24;25.40;50.60
69131;DHT22;56235;22.246;113.976;2022-07-21T19:20:57;25.40;50.60
69131;DHT22;56235;22.246;113.976;2022-07-21T19:23:30;25.40;50.70
69131;DHT22;56235;22.246;113.976;2022-07-21T19:26:03;25.40;50.70
69131;DHT22;56235;22.246;113.976;2022-07-21T19:28:38;25.40;50.70
69131;DHT22;56235;22.246;113.976;2022-07-21T19:31:11;25.40;50.60
69131;DHT22;56235;22.246;113.976;2022-07-21T19:33:44;25.50;50.80
69131;DHT22;56235;22.246;113.976;2022-07-21T19:36:17;25.50;50.80
69131;DHT22;56235;22.246;113.976;2022-07-21T19:38:50;25.50;50.90
69131;DHT22;56235;22.246;113.976;2022-07-21T19:41:24;25.50;50.90
69131;DHT22;56235;22.246;113.976;2022-07-21T19:43:59;25.50;50.90
69131;DHT22;56235;22.246;113.976;2022-07-21T19:46:32;25.50;50.90
69131;DHT22;56235;22.246;113.976;2022-07-21T19:49:05;25.50;50.80
69131;DHT22;56235;22.246;113.976;2022-07-21T19:51:38;25.50;50.80
69131;DHT22;56235;22.246;113.976;2022-07-21T19:54:11;25.50;50.80
69131;DHT22;56235;22.246;113.976;2022-07-21T19:56:44;25.50;50.70
69131;DHT22;56235;22.246;113.976;2022-07-21T19:59:19;25.60;50.70
69131;DHT22;56235;22.246;113.976;2022-07-21T20:01:53;25.50;50.60
69131;DHT22;56235;22.246;113.976;2022-07-21T20:04:27;25.60;50.70
69131;DHT22;56235;22.246;113.976;2022-07-21T20:06:59;25.60;50.70
69131;DHT22;56235;22.246;113.976;2022-07-21T20:09:32;25.60;50.60
69131;DHT22;56235;22.246;113.976;2022-07-21T20:12:05;25.60;50.70
69131;DHT22;56235;22.246;113.976;2022-07-21T20:14:48;25.50;50.60
69131;DHT22;56235;22.246;113.976;2022-07-21T20:17:20;25.60;50.80
69131;DHT22;56235;22.246;113.976;2022-07-21T20:20:10;25.50;50.80
69131;DHT22;56235;22.246;113.976;2022-07-21T20:22:43;25.50;50.70
69131;DHT22;56235;22.246;113.976;2022-07-21T20:25:16;25.60;50.90
69131;DHT22;56235;22.246;113.976;2022-07-21T20:27:49;25.60;50.90
69131;DHT22;56235;22.246;113.976;2022-07-21T20:30:26;25.60;50.90
69131;DHT22;56235;22.246;113.976;2022-07-21T20:33:01;25.60;50.40
69131;DHT22;56235;22.246;113.976;2022-07-21T20:35:34;25.60;50.90
69131;DHT22;56235;22.246;113.976;2022-07-21T20:38:19;25.60;50.90
69131;DHT22;56235;22.246;113.976;2022-07-21T20:40:52;25.60;50.90
69131;DHT22;56235;22.246;113.976;2022-07-21T20:43:26;25.60;50.90
69131;DHT22;56235;22.246;113.976;2022-07-21T20:46:00;25.60;51.00
69131;DHT22;56235;22.246;113.976;2022-07-21T20:48:33;25.60;51.00
69131;DHT22;56235;22.246;113.976;2022-07-21T20:51:06;25.60;51.00
69131;DHT22;56235;22.246;113.976;2022-07-21T20:53:39;25.60;50.90
69131;DHT22;56235;22.246;113.976;2022-07-21T20:56:11;25.60;50.80
69131;DHT22;56235;22.246;113.976;2022-07-21T20:59:04;25.60;50.70
69131;DHT22;56235;22.246;113.976;2022-07-21T21:01:41;25.60;50.90
69131;DHT22;56235;22.246;113.976;2022-07-21T21:04:14;25.60;50.80
69131;DHT22;56235;22.246;113.976;2022-07-21T21:06:47;25.60;50.80
69131;DHT22;56235;22.246;113.976;2022-07-21T21:09:20;25.60;50.70
69131;DHT22;56235;22.246;113.976;2022-07-21T21:11:52;25.60;50.50
69131;DHT22;56235;22.246;113.976;2022-07-21T21:14:25;25.60;50.70
69131;DHT22;56235;22.246;113.976;2022-07-21T21:17:01;25.60;50.50
69131;DHT22;56235;22.246;113.976;2022-07-21T21:19:33;25.60;50.50
69131;DHT22;56235;22.246;113.976;2022-07-21T21:22:06;25.60;50.50
69131;DHT22;56235;22.246;113.976;2022-07-21T21:24:39;25.60;50.60
69131;DHT22;56235;22.246;113.976;2022-07-21T21:27:12;25.50;50.50
69131;DHT22;56235;22.246;113.976;2022-07-21T21:29:44;25.60;50.60
69131;DHT22;56235;22.246;113.976;2022-07-21T21:32:19;25.60;50.60
69131;DHT22;56235;22.246;113.976;2022-07-21T21:34:52;25.50;50.50
69131;DHT22;56235;22.246;113.976;2022-07-21T21:37:26;25.60;50.60
69131;DHT22;56235;22.246;113.976;2022-07-21T21:39:59;25.60;50.60
69131;DHT22;56235;22.246;113.976;2022-07-21T21:42:32;25.60;50.50
69131;DHT22;56235;22.246;113.976;2022-07-21T21:45:05;25.50;50.40
69131;DHT22;56235;22.246;113.976;2022-07-21T21:47:40;25.60;50.40
69131;DHT22;56235;22.246;113.976;2022-07-21T21:50:13;25.60;50.40
69131;DHT22;56235;22.246;113.976;2022-07-21T21:52:46;25.60;50.30
69131;DHT22;56235;22.246;113.976;2022-07-21T21:55:19;25.60;50.30
69131;DHT22;56235;22.246;113.976;2022-07-21T21:57:53;25.60;50.50
69131;DHT22;56235;22.246;113.976;2022-07-21T22:00:26;25.60;50.50
69131;DHT22;56235;22.246;113.976;2022-07-21T22:03:01;25.60;50.40
69131;DHT22;56235;22.246;113.976;2022-07-21T22:05:34;25.60;50.40
69131;DHT22;56235;22.246;113.976;2022-07-21T22:08:07;25.60;50.50
69131;DHT22;56235;22.246;113.976;2022-07-21T22:10:40;25.60;50.60
69131;DHT22;56235;22.246;113.976;2022-07-21T22:13:13;25.60;50.10
69131;DHT22;56235;22.246;113.976;2022-07-21T22:15:45;25.50;49.30
69131;DHT22;56235;22.246;113.976;2022-07-21T22:18:20;25.50;48.80
69131;DHT22;56235;22.246;113.976;2022-07-21T22:20:54;25.40;48.40
69131;DHT22;56235;22.246;113.976;2022-07-21T22:23:45;25.40;48.10
69131;DHT22;56235;22.246;113.976;2022-07-21T22:26:19;25.30;47.80
69131;DHT22;56235;22.246;113.976;2022-07-21T22:28:53;25.30;47.70
69131;DHT22;56235;22.246;113.976;2022-07-21T22:31:27;25.30;47.60
69131;DHT22;56235;22.246;113.976;2022-07-21T22:34:03;25.20;47.40
69131;DHT22;56235;22.246;113.976;2022-07-21T22:36:38;25.20;47.30
69131;DHT22;56235;22.246;113.976;2022-07-21T22:39:12;25.20;47.20
69131;DHT22;56235;22.246;113.976;2022-07-21T22:41:45;25.20;47.10
69131;DHT22;56235;22.246;113.976;2022-07-21T22:44:20;25.10;47.00
69131;DHT22;56235;22.246;113.976;2022-07-21T22:46:55;25.10;46.90
69131;DHT22;56235;22.246;113.976;2022-07-21T22:49:31;25.10;46.80
69131;DHT22;56235;22.246;113.976;2022-07-21T22:52:05;25.20;46.70
69131;DHT22;56235;22.246;113.976;2022-07-21T22:54:39;25.30;46.40
69131;DHT22;56235;22.246;113.976;2022-07-21T22:57:13;25.40;46.00
69131;DHT22;56235;22.246;113.976;2022-07-21T23:00:06;25.50;45.90
69131;DHT22;56235;22.246;113.976;2022-07-21T23:02:40;25.50;45.90
69131;DHT22;56235;22.246;113.976;2022-07-21T23:05:16;25.60;45.80
69131;DHT22;56235;22.246;113.976;2022-07-21T23:07:50;25.70;45.90
69131;DHT22;56235;22.246;113.976;2022-07-21T23:10:25;25.70;45.70
69131;DHT22;56235;22.246;113.976;2022-07-21T23:12:59;25.70;45.60
69131;DHT22;56235;22.246;113.976;2022-07-21T23:15:33;25.80;45.40
69131;DHT22;56235;22.246;113.976;2022-07-21T23:18:07;25.80;45.30
69131;DHT22;56235;22.246;113.976;2022-07-21T23:20:43;25.90;45.20
69131;DHT22;56235;22.246;113.976;2022-07-21T23:23:17;25.90;45.10
69131;DHT22;56235;22.246;113.976;2022-07-21T23:25:51;25.90;45.10
69131;DHT22;56235;22.246;113.976;2022-07-21T23:28:25;26.00;45.00
69131;DHT22;56235;22.246;113.976;2022-07-21T23:30:59;26.00;45.50
69131;DHT22;56235;22.246;113.976;2022-07-21T23:33:33;26.00;45.60
69131;DHT22;56235;22.246;113.976;2022-07-21T23:36:11;26.00;46.30
69131;DHT22;56235;22.246;113.976;2022-07-21T23:38:45;26.00;46.30
69131;DHT22;56235;22.246;113.976;2022-07-21T23:41:19;26.00;46.50
69131;DHT22;56235;22.246;113.976;2022-07-21T23:43:53;26.00;46.20
69131;DHT22;56235;22.246;113.976;2022-07-21T23:46:27;26.00;46.00
69131;DHT22;56235;22.246;113.976;2022-07-21T23:49:01;26.00;45.90
69131;DHT22;56235;22.246;113.976;2022-07-21T23:51:38;26.00;45.70
69131;DHT22;56235;22.246;113.976;2022-07-21T23:54:12;26.00;45.60
69131;DHT22;56235;22.246;113.976;2022-07-21T23:56:46;26.00;45.40
69131;DHT22;56235;22.246;113.976;2022-07-21T23:59:20;26.00;45.30
